Terminal Aerodrome Forecast
Issued by NWS Cleveland, OH

Home | Current Version | Previous Version | Graphics & Text | Print | Product List | Glossary On
Versions: 1 2 3 4 5 6 7 8 9 10 11 12 13 14 15 16
457
FTUS41 KCLE 201130
TAFMFD
TAF
KMFD 201130Z 2012/2112 19005KT P6SM BKN080
      TEMPO 2012/2013 4SM BR SCT020
     FM201900 28006KT P6SM VCTS BKN040CB
     FM202300 35006KT P6SM SCT040
     FM210900 VRB03KT 4SM BR SKC=

USA.gov is the U.S. government's official web portal to all federal, state and local government web resources and services.